Time;durP1;ratioP1;P1;durP2;ratioP2;P2;SDS_P1;SDS_P2;PMS_P1;PMS_P2;Temp;Humidity;BMP_temperature;BMP_pressure;BME280_temperature;BME280_humidity;BME280_pressure;Samples;Min_cycle;Max_cycle;Signal;HPM_P1;HPM_P2
2023/11/21 00:00:02;;;;;;;;;;;;;;;;;;6226537;28;20389;-82
2023/11/21 00:03:03;;;;;;;;;;;;;;;;;;6233066;28;20004;-82
2023/11/21 00:06:04;;;;;;;;;;;;;;;;;;6246077;28;20287;-82
2023/11/21 00:09:05;;;;;;;;;;;;;;;;;;6246158;28;19924;-82
2023/11/21 00:12:05;;;;;;;;;;;;;;;;;;6246425;28;19914;-82
2023/11/21 00:15:09;;;;;;;;;;;;;;;;;;6225805;28;19925;-82
2023/11/21 00:18:10;;;;;;;;;;;;;;;;;;6247980;28;20277;-82
2023/11/21 00:21:12;;;;;;;;;;;;;;;;;;6226355;28;19917;-82
2023/11/21 00:24:13;;;;;;;;;;;;;;;;;;6244759;28;19918;-82
2023/11/21 00:27:14;;;;;;;;;;;;;;;;;;6235573;28;20406;-82
2023/11/21 00:30:14;;;;;;;;;;;;;;;;;;6231040;28;20033;-82
2023/11/21 00:33:14;;;;;;;;;;;;;;;;;;6230677;28;19921;-83
2023/11/21 00:36:14;;;;;;;;;;;;;;;;;;6227310;28;19921;-82
2023/11/21 00:39:15;;;;;;;;;;;;;;;;;;6233887;28;19913;-82
2023/11/21 00:42:15;;;;;;;;;;;;;;;;;;6277860;28;20444;-81
2023/11/21 00:45:15;;;;;;;;;;;;;;;;;;6277903;28;19929;-82
2023/11/21 00:48:15;;;;;;;;;;;;;;;;;;5926499;28;10000442;-82
2023/11/21 00:51:15;;;;;;;;;;;;;;;;;;6281268;28;19939;-81
2023/11/21 00:54:16;;;;;;;;;;;;;;;;;;6277460;28;19920;-82
2023/11/21 00:57:17;;;;;;;;;;;;;;;;;;6283755;28;19924;-82
2023/11/21 01:00:17;;;;;;;;;;;;;;;;;;6281077;28;19917;-82
2023/11/21 01:03:17;;;;;;;;;;;;;;;;;;6296354;28;19913;-82
2023/11/21 01:06:17;;;;;;;;;;;;;;;;;;6280616;28;19920;-82
2023/11/21 01:09:18;;;;;;;;;;;;;;;;;;6284184;28;19913;-85
2023/11/21 01:12:18;;;;;;;;;;;;;;;;;;6280162;28;19919;-82
2023/11/21 01:15:18;;;;;;;;;;;;;;;;;;6285452;28;20004;-82
2023/11/21 01:18:19;;;;;;;;;;;;;;;;;;6277583;28;19913;-82
2023/11/21 01:21:19;;;;;;;;;;;;;;;;;;6275757;28;20051;-82
2023/11/21 01:24:19;;;;;;;;;;;;;;;;;;6278695;28;20262;-83
2023/11/21 01:27:19;;;;;;;;;;;;;;;;;;6276791;28;20361;-82
2023/11/21 01:30:19;;;;;;;;;;;;;;;;;;6280022;28;19913;-82
2023/11/21 01:33:19;;;;;;;;;;;;;;;;;;6275465;28;19913;-82
2023/11/21 01:36:19;;;;;;;;;;;;;;;;;;6282227;28;19913;-82
2023/11/21 01:39:23;;;;;;;;;;;;;;;;;;6277896;28;19921;-82
2023/11/21 01:42:23;;;;;;;;;;;;;;;;;;6279459;28;19923;-82
2023/11/21 01:45:24;;;;;;;;;;;;;;;;;;6275941;28;19929;-82
2023/11/21 01:48:25;;;;;;;;;;;;;;;;;;6278239;28;19913;-81
2023/11/21 01:51:25;;;;;;;;;;;;;;;;;;6273109;28;19919;-82
2023/11/21 01:54:26;;;;;;;;;;;;;;;;;;6276772;28;19931;-82
2023/11/21 01:57:26;;;;;;;;;;;;;;;;;;6279174;28;19912;-82
2023/11/21 02:00:28;;;;;;;;;;;;;;;;;;6279844;28;19963;-82
2023/11/21 02:03:29;;;;;;;;;;;;;;;;;;6280354;28;19971;-82
2023/11/21 02:06:31;;;;;;;;;;;;;;;;;;6275576;28;19983;-81
2023/11/21 02:09:32;;;;;;;;;;;;;;;;;;6278374;28;19924;-82
2023/11/21 02:12:33;;;;;;;;;;;;;;;;;;6280861;28;19919;-82
2023/11/21 02:15:33;;;;;;;;;;;;;;;;;;6280723;28;19920;-82
2023/11/21 02:18:33;;;;;;;;;;;;;;;;;;6273371;28;19912;-82
2023/11/21 02:21:34;;;;;;;;;;;;;;;;;;6276038;28;19924;-83
2023/11/21 02:24:34;;;;;;;;;;;;;;;;;;6279086;28;19917;-82
2023/11/21 02:27:34;;;;;;;;;;;;;;;;;;6277465;28;19921;-81
2023/11/21 02:30:35;;;;;;;;;;;;;;;;;;6278883;28;19916;-82
2023/11/21 02:33:35;;;;;;;;;;;;;;;;;;6274000;28;20013;-81
2023/11/21 02:36:35;;;;;;;;;;;;;;;;;;6277233;28;20332;-82
2023/11/21 02:39:37;;;;;;;;;;;;;;;;;;6283287;28;19929;-82
2023/11/21 02:42:37;;;;;;;;;;;;;;;;;;6271502;28;19928;-82
2023/11/21 02:45:38;;;;;;;;;;;;;;;;;;6276953;28;19920;-82
2023/11/21 02:48:38;;;;;;;;;;;;;;;;;;6274679;28;19913;-81
2023/11/21 02:51:38;;;;;;;;;;;;;;;;;;6277614;28;19912;-83
2023/11/21 02:54:38;;;;;;;;;;;;;;;;;;6282570;28;19924;-81
2023/11/21 02:57:39;;;;;;;;;;;;;;;;;;6289238;28;19912;-82
2023/11/21 03:00:41;;;;;;;;;;;;;;;;;;6279602;28;19912;-82
2023/11/21 03:03:41;;;;;;;;;;;;;;;;;;6288690;28;19962;-82
2023/11/21 03:06:41;;;;;;;;;;;;;;;;;;6280780;28;20336;-82
2023/11/21 03:09:42;;;;;;;;;;;;;;;;;;6286298;28;20408;-82
2023/11/21 03:12:42;;;;;;;;;;;;;;;;;;6288525;28;19920;-81
2023/11/21 03:15:42;;;;;;;;;;;;;;;;;;6286076;28;19917;-82
2023/11/21 03:18:42;;;;;;;;;;;;;;;;;;6285661;28;19923;-82
2023/11/21 03:21:43;;;;;;;;;;;;;;;;;;6279672;28;19986;-83
2023/11/21 03:24:43;;;;;;;;;;;;;;;;;;6284440;28;19921;-82
2023/11/21 03:27:44;;;;;;;;;;;;;;;;;;6284162;28;19924;-82
2023/11/21 03:30:44;;;;;;;;;;;;;;;;;;6275548;28;19913;-82
2023/11/21 03:33:45;;;;;;;;;;;;;;;;;;6283295;28;20258;-82
2023/11/21 03:36:46;;;;;;;;;;;;;;;;;;6281739;28;19928;-82
2023/11/21 03:39:46;;;;;;;;;;;;;;;;;;6280767;28;19952;-82
2023/11/21 03:42:47;;;;;;;;;;;;;;;;;;6279638;28;19916;-82
2023/11/21 03:45:47;;;;;;;;;;;;;;;;;;6298966;28;19928;-82
2023/11/21 03:48:47;;;;;;;;;;;;;;;;;;6288668;28;20369;-82
2023/11/21 03:51:47;;;;;;;;;;;;;;;;;;6283105;28;20007;-82
2023/11/21 03:54:47;;;;;;;;;;;;;;;;;;6284395;28;20273;-82
2023/11/21 03:57:47;;;;;;;;;;;;;;;;;;6283212;28;19912;-82
2023/11/21 04:00:51;;;;;;;;;;;;;;;;;;6285929;28;19931;-82
2023/11/21 04:03:51;;;;;;;;;;;;;;;;;;6275849;28;20297;-82
2023/11/21 04:06:54;;;;;;;;;;;;;;;;;;6276121;28;19925;-82
2023/11/21 04:09:54;;;;;;;;;;;;;;;;;;6275385;28;19943;-82
2023/11/21 04:12:54;;;;;;;;;;;;;;;;;;6283496;28;20065;-81
2023/11/21 04:15:54;;;;;;;;;;;;;;;;;;6276432;28;19926;-82
2023/11/21 04:18:54;;;;;;;;;;;;;;;;;;6278748;28;19919;-82
2023/11/21 04:21:55;;;;;;;;;;;;;;;;;;6274889;28;19925;-82
2023/11/21 04:24:55;;;;;;;;;;;;;;;;;;6277854;28;19924;-81
2023/11/21 04:27:55;;;;;;;;;;;;;;;;;;6281568;28;20271;-82
2023/11/21 04:30:56;;;;;;;;;;;;;;;;;;6285155;28;19912;-82
2023/11/21 04:33:56;;;;;;;;;;;;;;;;;;6275549;28;19939;-82
2023/11/21 04:36:56;;;;;;;;;;;;;;;;;;6272664;28;19916;-82
2023/11/21 04:39:56;;;;;;;;;;;;;;;;;;6279196;28;19935;-82
2023/11/21 04:42:57;;;;;;;;;;;;;;;;;;6280876;28;19963;-82
2023/11/21 04:45:57;;;;;;;;;;;;;;;;;;6278192;28;19960;-82
2023/11/21 04:48:57;;;;;;;;;;;;;;;;;;6284623;28;20032;-82
2023/11/21 04:51:58;;;;;;;;;;;;;;;;;;6270880;28;19920;-81
2023/11/21 04:54:58;;;;;;;;;;;;;;;;;;6281291;28;20060;-82
2023/11/21 04:57:58;;;;;;;;;;;;;;;;;;6277040;28;19920;-82
2023/11/21 05:00:58;;;;;;;;;;;;;;;;;;6280554;28;19959;-82
2023/11/21 05:03:59;;;;;;;;;;;;;;;;;;6276727;28;19958;-82
2023/11/21 05:07:00;;;;;;;;;;;;;;;;;;6279925;28;20444;-82
2023/11/21 05:10:03;;;;;;;;;;;;;;;;;;6278862;28;19952;-81
2023/11/21 05:13:03;;;;;;;;;;;;;;;;;;6279824;28;19917;-82
2023/11/21 05:16:07;;;;;;;;;;;;;;;;;;6285386;28;19912;-82
2023/11/21 05:19:07;;;;;;;;;;;;;;;;;;6270310;28;19956;-82
2023/11/21 05:22:08;;;;;;;;;;;;;;;;;;6273389;28;20011;-85
2023/11/21 05:25:08;;;;;;;;;;;;;;;;;;6279943;28;19924;-85
2023/11/21 05:28:08;;;;;;;;;;;;;;;;;;6275502;28;21320;-85
2023/11/21 05:31:10;;;;;;;;;;;;;;;;;;6278446;28;19912;-85
2023/11/21 05:34:10;;;;;;;;;;;;;;;;;;6280161;28;19925;-84
2023/11/21 05:37:10;;;;;;;;;;;;;;;;;;6270980;28;20420;-84
2023/11/21 05:40:10;;;;;;;;;;;;;;;;;;6275866;28;19925;-85
2023/11/21 05:43:11;;;;;;;;;;;;;;;;;;6280867;28;19916;-84
2023/11/21 05:46:13;;;;;;;;;;;;;;;;;;6279314;28;19921;-85
2023/11/21 05:49:13;;;;;;;;;;;;;;;;;;6278771;28;20366;-85
2023/11/21 05:52:13;;;;;;;;;;;;;;;;;;6288635;28;19913;-84
2023/11/21 05:55:13;;;;;;;;;;;;;;;;;;6279472;28;20375;-85
2023/11/21 05:58:13;;;;;;;;;;;;;;;;;;6280058;28;19920;-85
2023/11/21 06:01:14;;;;;;;;;;;;;;;;;;6276592;28;19927;-85
2023/11/21 06:04:14;;;;;;;;;;;;;;;;;;6275250;28;20278;-85
2023/11/21 06:07:14;;;;;;;;;;;;;;;;;;6268561;28;20022;-85
2023/11/21 06:10:14;;;;;;;;;;;;;;;;;;6273095;28;19927;-85
2023/11/21 06:13:15;;;;;;;;;;;;;;;;;;6273057;28;19921;-85
2023/11/21 06:16:17;;;;;;;;;;;;;;;;;;6276540;28;19920;-86
2023/11/21 06:19:17;;;;;;;;;;;;;;;;;;6273231;28;19975;-85
2023/11/21 06:22:17;;;;;;;;;;;;;;;;;;6271094;28;20482;-85
2023/11/21 06:25:17;;;;;;;;;;;;;;;;;;6287360;28;19924;-85
2023/11/21 06:28:17;;;;;;;;;;;;;;;;;;6300737;28;19917;-86
2023/11/21 06:31:17;;;;;;;;;;;;;;;;;;6274006;28;19908;-82
2023/11/21 06:34:17;;;;;;;;;;;;;;;;;;6276770;28;19920;-82
2023/11/21 06:37:20;;;;;;;;;;;;;;;;;;6293470;28;19930;-83
2023/11/21 06:40:21;;;;;;;;;;;;;;;;;;6273342;28;19928;-82
2023/11/21 06:43:22;;;;;;;;;;;;;;;;;;6273496;28;20366;-83
2023/11/21 06:46:22;;;;;;;;;;;;;;;;;;6274978;28;20014;-81
2023/11/21 06:49:23;;;;;;;;;;;;;;;;;;6273107;28;19952;-84
2023/11/21 06:52:23;;;;;;;;;;;;;;;;;;6277682;28;20266;-85
2023/11/21 06:55:23;;;;;;;;;;;;;;;;;;6277715;28;20533;-84
2023/11/21 06:58:23;;;;;;;;;;;;;;;;;;6290600;28;19927;-84
2023/11/21 07:01:24;;;;;;;;;;;;;;;;;;6274938;28;19923;-85
2023/11/21 07:04:25;;;;;;;;;;;;;;;;;;6277345;28;19927;-84
2023/11/21 07:07:25;;;;;;;;;;;;;;;;;;6273308;28;19921;-85
2023/11/21 07:10:26;;;;;;;;;;;;;;;;;;6273926;28;19924;-83
2023/11/21 07:13:26;;;;;;;;;;;;;;;;;;6274452;28;20192;-84
2023/11/21 07:16:26;;;;;;;;;;;;;;;;;;6273812;28;19991;-84
2023/11/21 07:19:26;;;;;;;;;;;;;;;;;;6272579;28;19918;-84
2023/11/21 07:22:27;;;;;;;;;;;;;;;;;;6291637;28;19936;-83
2023/11/21 07:25:27;;;;;;;;;;;;;;;;;;6300317;28;19955;-84
2023/11/21 07:28:27;;;;;;;;;;;;;;;;;;6297130;28;19999;-82
2023/11/21 07:31:27;;;;;;;;;;;;;;;;;;6297371;28;20007;-82
2023/11/21 07:34:27;;;;;;;;;;;;;;;;;;6277816;28;20015;-83
2023/11/21 07:37:30;;;;;;;;;;;;;;;;;;6273898;28;19966;-83
2023/11/21 07:40:31;;;;;;;;;;;;;;;;;;6278938;28;19929;-84
2023/11/21 07:43:34;;;;;;;;;;;;;;;;;;6277170;28;21019;-82
2023/11/21 07:46:35;;;;;;;;;;;;;;;;;;6282190;28;19921;-84
2023/11/21 07:49:35;;;;;;;;;;;;;;;;;;6293458;28;19974;-83
2023/11/21 07:52:35;;;;;;;;;;;;;;;;;;6285685;28;19921;-82
2023/11/21 07:55:36;;;;;;;;;;;;;;;;;;6278943;28;19909;-84
2023/11/21 07:58:36;;;;;;;;;;;;;;;;;;6279209;28;20003;-83
2023/11/21 08:01:36;;;;;;;;;;;;;;;;;;6283789;28;19915;-84
2023/11/21 08:04:36;;;;;;;;;;;;;;;;;;6278647;28;19920;-84
2023/11/21 08:07:36;;;;;;;;;;;;;;;;;;6274151;28;19969;-84
2023/11/21 08:10:36;;;;;;;;;;;;;;;;;;6276195;28;19966;-82
2023/11/21 08:13:37;;;;;;;;;;;;;;;;;;6295330;28;19916;-82
2023/11/21 08:16:37;;;;;;;;;;;;;;;;;;6281972;28;19934;-82
2023/11/21 08:19:38;;;;;;;;;;;;;;;;;;6285082;28;19909;-83
2023/11/21 08:22:40;;;;;;;;;;;;;;;;;;6275406;28;19970;-82
2023/11/21 08:25:42;;;;;;;;;;;;;;;;;;6297279;28;19929;-82
2023/11/21 08:28:42;;;;;;;;;;;;;;;;;;6298585;28;19960;-82
2023/11/21 08:31:42;;;;;;;;;;;;;;;;;;6289128;28;19916;-83
2023/11/21 08:34:44;;;;;;;;;;;;;;;;;;6284678;28;19963;-83
2023/11/21 08:37:44;;;;;;;;;;;;;;;;;;6292478;28;19912;-83
2023/11/21 08:40:44;;;;;;;;;;;;;;;;;;6289909;28;19928;-83
2023/11/21 08:43:44;;;;;;;;;;;;;;;;;;6293734;28;19962;-83
2023/11/21 08:46:48;;;;;;;;;;;;;;;;;;6285543;28;19921;-83
2023/11/21 08:49:49;;;;;;;;;;;;;;;;;;6272961;28;20285;-84
2023/11/21 08:52:49;;;;;;;;;;;;;;;;;;6283786;28;19912;-87
2023/11/21 08:55:50;;;;;;;;;;;;;;;;;;6282937;28;19913;-86
2023/11/21 08:58:50;;;;;;;;;;;;;;;;;;6287610;28;19913;-85
2023/11/21 09:01:50;;;;;;;;;;;;;;;;;;6285693;28;19916;-86
2023/11/21 09:04:52;;;;;;;;;;;;;;;;;;6296243;28;19917;-86
2023/11/21 09:07:52;;;;;;;;;;;;;;;;;;6297632;28;19917;-86
2023/11/21 09:10:52;;;;;;;;;;;;;;;;;;6295127;28;19958;-85
2023/11/21 09:13:52;;;;;;;;;;;;;;;;;;6292490;28;20046;-85
2023/11/21 09:16:52;;;;;;;;;;;;;;;;;;6297358;28;20303;-85
2023/11/21 09:19:53;;;;;;;;;;;;;;;;;;6291165;28;19936;-86
2023/11/21 09:22:54;;;;;;;;;;;;;;;;;;6298799;28;19917;-86
2023/11/21 09:25:56;;;;;;;;;;;;;;;;;;6299067;28;19920;-86
2023/11/21 09:28:56;;;;;;;;;;;;;;;;;;6299878;28;20288;-86
2023/11/21 09:31:59;;;;;;;;;;;;;;;;;;6280184;28;19913;-86
2023/11/21 09:35:02;;;;;;;;;;;;;;;;;;6292860;28;20382;-86
2023/11/21 09:38:05;;;;;;;;;;;;;;;;;;6292624;28;19912;-86
2023/11/21 09:41:06;;;;;;;;;;;;;;;;;;6273346;28;19921;-85
2023/11/21 09:44:07;;;;;;;;;;;;;;;;;;6285912;28;19923;-85
2023/11/21 09:47:10;;;;;;;;;;;;;;;;;;6281614;28;19924;-85
2023/11/21 09:50:10;;;;;;;;;;;;;;;;;;6279408;28;19913;-85
2023/11/21 09:53:11;;;;;;;;;;;;;;;;;;6286928;28;19920;-85
2023/11/21 09:56:11;;;;;;;;;;;;;;;;;;6273228;28;19913;-85
2023/11/21 09:59:11;;;;;;;;;;;;;;;;;;6274015;28;20007;-86
2023/11/21 10:02:13;;;;;;;;;;;;;;;;;;6283649;28;19927;-86
2023/11/21 10:05:13;;;;;;;;;;;;;;;;;;6275770;28;20365;-86
2023/11/21 10:08:14;;;;;;;;;;;;;;;;;;6295919;28;19920;-86
2023/11/21 10:11:14;;;;;;;;;;;;;;;;;;6276611;28;19920;-86
2023/11/21 10:14:14;;;;;;;;;;;;;;;;;;6280274;28;20289;-86
2023/11/21 10:17:16;;;;;;;;;;;;;;;;;;6295639;28;19912;-86
2023/11/21 10:20:16;;;;;;;;;;;;;;;;;;6282572;28;19920;-86
2023/11/21 10:23:16;;;;;;;;;;;;;;;;;;6272847;28;19920;-85
2023/11/21 10:26:16;;;;;;;;;;;;;;;;;;6278742;28;20305;-86
2023/11/21 10:29:16;;;;;;;;;;;;;;;;;;6271067;28;19935;-86
2023/11/21 10:32:16;;;;;;;;;;;;;;;;;;6290057;28;19927;-86
2023/11/21 10:35:16;;;;;;;;;;;;;;;;;;6285319;28;20004;-85
2023/11/21 10:38:17;;;;;;;;;;;;;;;;;;6275010;28;19916;-87
2023/11/21 10:41:17;;;;;;;;;;;;;;;;;;6273416;28;19944;-86
2023/11/21 10:44:21;;;;;;;;;;;;;;;;;;6310373;28;19909;-86
2023/11/21 10:47:22;;;;;;;;;;;;;;;;;;6293331;28;19920;-85
2023/11/21 10:50:22;;;;;;;;;;;;;;;;;;6289077;28;19951;-86
2023/11/21 10:53:23;;;;;;;;;;;;;;;;;;6283691;28;19912;-84
2023/11/21 10:56:24;;;;;;;;;;;;;;;;;;6288165;28;20016;-85
2023/11/21 10:59:26;;;;;;;;;;;;;;;;;;6295901;28;19917;-84
2023/11/21 11:02:27;;;;;;;;;;;;;;;;;;6292586;28;19919;-85
2023/11/21 11:05:28;;;;;;;;;;;;;;;;;;6283852;28;19917;-85
2023/11/21 11:08:28;;;;;;;;;;;;;;;;;;6287190;28;19966;-85
2023/11/21 11:11:29;;;;;;;;;;;;;;;;;;6294754;28;19912;-81
2023/11/21 11:14:29;;;;;;;;;;;;;;;;;;6287063;28;19917;-78
2023/11/21 11:17:29;;;;;;;;;;;;;;;;;;6276648;28;19914;-78
2023/11/21 11:20:30;;;;;;;;;;;;;;;;;;6275591;28;19916;-78
2023/11/21 11:23:30;;;;;;;;;;;;;;;;;;6275595;28;19919;-78
2023/11/21 11:26:30;;;;;;;;;;;;;;;;;;6277559;28;19964;-78
2023/11/21 11:29:31;;;;;;;;;;;;;;;;;;6301633;28;19955;-78
2023/11/21 11:32:33;;;;;;;;;;;;;;;;;;6301059;28;19995;-78
2023/11/21 11:35:33;;;;;;;;;;;;;;;;;;6297568;28;19920;-78
2023/11/21 11:38:33;;;;;;;;;;;;;;;;;;6291354;28;19913;-78
2023/11/21 11:41:34;;;;;;;;;;;;;;;;;;6293394;28;20380;-78
2023/11/21 11:44:34;;;;;;;;;;;;;;;;;;6300700;28;19912;-77
2023/11/21 11:47:37;;;;;;;;;;;;;;;;;;6301312;28;19951;-78
2023/11/21 11:50:40;;;;;;;;;;;;;;;;;;6283737;28;19917;-77
2023/11/21 11:53:41;;;;;;;;;;;;;;;;;;6290998;28;19909;-78
2023/11/21 11:56:41;;;;;;;;;;;;;;;;;;6299374;28;19922;-78
2023/11/21 11:59:41;;;;;;;;;;;;;;;;;;6301080;28;19920;-78
2023/11/21 12:02:41;;;;;;;;;;;;;;;;;;6300492;28;19970;-78
2023/11/21 12:05:45;;;;;;;;;;;;;;;;;;6299253;28;19924;-78
2023/11/21 12:08:45;;;;;;;;;;;;;;;;;;6299715;28;19908;-78
2023/11/21 12:11:45;;;;;;;;;;;;;;;;;;6284176;28;20007;-78
2023/11/21 12:14:45;;;;;;;;;;;;;;;;;;6299254;28;20391;-78
2023/11/21 12:17:45;;;;;;;;;;;;;;;;;;6300294;28;20325;-78
2023/11/21 12:20:48;;;;;;;;;;;;;;;;;;6298917;28;20049;-80
2023/11/21 12:23:48;;;;;;;;;;;;;;;;;;6299946;28;19912;-80
2023/11/21 12:26:48;;;;;;;;;;;;;;;;;;6297477;28;20003;-80
2023/11/21 12:29:48;;;;;;;;;;;;;;;;;;6298845;28;20373;-80
2023/11/21 12:32:49;;;;;;;;;;;;;;;;;;6300437;28;19916;-80
2023/11/21 12:35:49;;;;;;;;;;;;;;;;;;6298562;28;19908;-80
2023/11/21 12:38:49;;;;;;;;;;;;;;;;;;6287886;28;19931;-80
2023/11/21 12:41:49;;;;;;;;;;;;;;;;;;6292755;28;19920;-80
2023/11/21 12:44:50;;;;;;;;;;;;;;;;;;6289811;28;19913;-80
2023/11/21 12:47:54;;;;;;;;;;;;;;;;;;6300199;28;19917;-80
2023/11/21 12:50:55;;;;;;;;;;;;;;;;;;6297928;28;19909;-80
2023/11/21 12:53:55;;;;;;;;;;;;;;;;;;6299945;28;20353;-80
2023/11/21 12:56:55;;;;;;;;;;;;;;;;;;6297655;28;20012;-80
2023/11/21 12:59:55;;;;;;;;;;;;;;;;;;6298067;28;19909;-80
2023/11/21 13:02:59;;;;;;;;;;;;;;;;;;6287943;28;19909;-80
2023/11/21 13:05:59;;;;;;;;;;;;;;;;;;6296922;28;19916;-80
2023/11/21 13:08:59;;;;;;;;;;;;;;;;;;6281429;28;20317;-80
2023/11/21 13:11:59;;;;;;;;;;;;;;;;;;6292218;28;20277;-80
2023/11/21 13:14:59;;;;;;;;;;;;;;;;;;6274305;28;19966;-80
2023/11/21 13:17:59;;;;;;;;;;;;;;;;;;6299160;28;19931;-80
2023/11/21 13:20:59;;;;;;;;;;;;;;;;;;6297261;28;20320;-80
2023/11/21 13:23:59;;;;;;;;;;;;;;;;;;6299498;28;19912;-80
2023/11/21 13:27:00;;;;;;;;;;;;;;;;;;6298929;28;19920;-79
2023/11/21 13:30:00;;;;;;;;;;;;;;;;;;6297748;28;19909;-78
2023/11/21 13:33:06;;;;;;;;;;;;;;;;;;6282268;28;19920;-77
2023/11/21 13:36:09;;;;;;;;;;;;;;;;;;6282224;28;19917;-78
2023/11/21 13:39:15;;;;;;;;;;;;;;;;;;6295819;28;20379;-77
2023/11/21 13:42:16;;;;;;;;;;;;;;;;;;6297015;28;20054;-78
2023/11/21 13:45:18;;;;;;;;;;;;;;;;;;6298151;28;19916;-77
2023/11/21 13:48:25;;;;;;;;;;;;;;;;;;6298730;28;19926;-77
2023/11/21 13:51:37;;;;;;;;;;;;;;;;;;6293529;28;19970;-78
2023/11/21 13:54:37;;;;;;;;;;;;;;;;;;6297486;28;19922;-78
2023/11/21 13:57:38;;;;;;;;;;;;;;;;;;6290054;28;20344;-78
2023/11/21 14:00:45;;;;;;;;;;;;;;;;;;6273472;28;19909;-78
2023/11/21 14:03:56;;;;;;;;;;;;;;;;;;6293109;28;20400;-78
2023/11/21 14:06:58;;;;;;;;;;;;;;;;;;6286160;28;20256;-78
2023/11/21 14:09:59;;;;;;;;;;;;;;;;;;6292813;28;20325;-77
2023/11/21 14:12:59;;;;;;;;;;;;;;;;;;6295828;28;20365;-77
2023/11/21 14:16:00;;;;;;;;;;;;;;;;;;6294320;28;19966;-78
2023/11/21 14:19:09;;;;;;;;;;;;;;;;;;6298032;28;19915;-77
2023/11/21 14:22:09;;;;;;;;;;;;;;;;;;6287089;28;19916;-78
2023/11/21 14:25:11;;;;;;;;;;;;;;;;;;6296764;28;19952;-77
2023/11/21 14:28:11;;;;;;;;;;;;;;;;;;6297843;28;19917;-77
2023/11/21 14:31:15;;;;;;;;;;;;;;;;;;6290372;28;20440;-77
2023/11/21 14:34:15;;;;;;;;;;;;;;;;;;6271991;28;19917;-77
2023/11/21 14:37:15;;;;;;;;;;;;;;;;;;6270950;28;19920;-77
2023/11/21 14:40:15;;;;;;;;;;;;;;;;;;6295676;28;19951;-77
2023/11/21 14:43:16;;;;;;;;;;;;;;;;;;6296539;28;19908;-77
2023/11/21 14:46:19;;;;;;;;;;;;;;;;;;6296792;28;19923;-77
2023/11/21 14:49:23;;;;;;;;;;;;;;;;;;6294070;28;20378;-77
2023/11/21 14:52:33;;;;;;;;;;;;;;;;;;6271628;28;20388;-77
2023/11/21 14:55:50;;;;;;;;;;;;;;;;;;6288100;28;20337;-77
2023/11/21 14:58:50;;;;;;;;;;;;;;;;;;6272395;28;20308;-78
2023/11/21 15:01:55;;;;;;;;;;;;;;;;;;6296752;28;20368;-78
2023/11/21 15:05:02;;;;;;;;;;;;;;;;;;6293944;28;20293;-78
2023/11/21 15:08:18;;;;;;;;;;;;;;;;;;6296349;28;19975;-77
2023/11/21 15:11:19;;;;;;;;;;;;;;;;;;6296059;28;20368;-78
2023/11/21 15:14:25;;;;;;;;;;;;;;;;;;6292423;28;19951;-77
2023/11/21 15:17:30;;;;;;;;;;;;;;;;;;6285744;28;19919;-77
2023/11/21 15:20:31;;;;;;;;;;;;;;;;;;6295281;28;19916;-77
2023/11/21 15:23:34;;;;;;;;;;;;;;;;;;6296652;28;20273;-77
2023/11/21 15:26:34;;;;;;;;;;;;;;;;;;6296432;28;19924;-77
2023/11/21 15:29:35;;;;;;;;;;;;;;;;;;6296573;28;19913;-78
2023/11/21 15:32:35;;;;;;;;;;;;;;;;;;6289259;28;19920;-77
2023/11/21 15:35:37;;;;;;;;;;;;;;;;;;6293081;28;19934;-78
2023/11/21 15:38:38;;;;;;;;;;;;;;;;;;6291852;28;20357;-77
2023/11/21 15:41:38;;;;;;;;;;;;;;;;;;6294881;28;19939;-77
2023/11/21 15:44:39;;;;;;;;;;;;;;;;;;6296019;28;19987;-78
2023/11/21 15:47:39;;;;;;;;;;;;;;;;;;6280957;28;19913;-78
2023/11/21 15:50:40;;;;;;;;;;;;;;;;;;6278080;28;19916;-80
2023/11/21 15:53:40;;;;;;;;;;;;;;;;;;6296275;28;19909;-81
2023/11/21 15:56:40;;;;;;;;;;;;;;;;;;6296069;28;19909;-80
2023/11/21 15:59:42;;;;;;;;;;;;;;;;;;6294295;28;19918;-80
2023/11/21 16:02:42;;;;;;;;;;;;;;;;;;6300499;28;20007;-80
2023/11/21 16:05:42;;;;;;;;;;;;;;;;;;6299214;28;19916;-80
2023/11/21 16:08:43;;;;;;;;;;;;;;;;;;6293835;28;20387;-80
2023/11/21 16:11:43;;;;;;;;;;;;;;;;;;6299801;28;19912;-80
2023/11/21 16:14:45;;;;;;;;;;;;;;;;;;6275259;28;20345;-80
2023/11/21 16:17:45;;;;;;;;;;;;;;;;;;6282148;28;19966;-80
2023/11/21 16:20:46;;;;;;;;;;;;;;;;;;6273956;28;19909;-79
2023/11/21 16:23:46;;;;;;;;;;;;;;;;;;6299770;28;19958;-80
2023/11/21 16:26:46;;;;;;;;;;;;;;;;;;6274010;28;20206;-80
2023/11/21 16:29:47;;;;;;;;;;;;;;;;;;6274914;28;19912;-80
2023/11/21 16:32:47;;;;;;;;;;;;;;;;;;6281594;28;20336;-80
2023/11/21 16:35:47;;;;;;;;;;;;;;;;;;6296560;28;19912;-80
2023/11/21 16:38:47;;;;;;;;;;;;;;;;;;6288066;28;19909;-80
2023/11/21 16:41:47;;;;;;;;;;;;;;;;;;6279641;28;19924;-80
2023/11/21 16:44:47;;;;;;;;;;;;;;;;;;6296803;28;20037;-80
2023/11/21 16:47:47;;;;;;;;;;;;;;;;;;6300079;28;19912;-80
2023/11/21 16:50:48;;;;;;;;;;;;;;;;;;6296897;28;19923;-80
2023/11/21 16:53:48;;;;;;;;;;;;;;;;;;6299224;28;19919;-80
2023/11/21 16:56:48;;;;;;;;;;;;;;;;;;6281904;28;19919;-80
2023/11/21 16:59:51;;;;;;;;;;;;;;;;;;6290180;28;19962;-78
2023/11/21 17:02:51;;;;;;;;;;;;;;;;;;6286936;28;20011;-80
2023/11/21 17:05:52;;;;;;;;;;;;;;;;;;6290815;28;19923;-80
2023/11/21 17:08:52;;;;;;;;;;;;;;;;;;6282723;28;19921;-80
2023/11/21 17:11:52;;;;;;;;;;;;;;;;;;6298437;28;19908;-80
2023/11/21 17:14:53;;;;;;;;;;;;;;;;;;6296925;28;19920;-80
2023/11/21 17:17:55;;;;;;;;;;;;;;;;;;6281340;28;19909;-80
2023/11/21 17:20:55;;;;;;;;;;;;;;;;;;6296499;28;19908;-80
2023/11/21 17:23:55;;;;;;;;;;;;;;;;;;6296555;28;19913;-80
2023/11/21 17:26:55;;;;;;;;;;;;;;;;;;6298884;28;19960;-80
2023/11/21 17:29:56;;;;;;;;;;;;;;;;;;6297202;28;20015;-80
2023/11/21 17:32:56;;;;;;;;;;;;;;;;;;6297149;28;19908;-80
2023/11/21 17:35:56;;;;;;;;;;;;;;;;;;6296365;28;19953;-80
2023/11/21 17:38:57;;;;;;;;;;;;;;;;;;6290873;28;19922;-80
2023/11/21 17:41:57;;;;;;;;;;;;;;;;;;6283741;28;20003;-80
2023/11/21 17:44:57;;;;;;;;;;;;;;;;;;6272991;28;19913;-80
2023/11/21 17:47:57;;;;;;;;;;;;;;;;;;6293821;28;19923;-80
2023/11/21 17:50:57;;;;;;;;;;;;;;;;;;6295491;28;19928;-80
2023/11/21 17:54:01;;;;;;;;;;;;;;;;;;6297724;28;19962;-80
2023/11/21 17:57:01;;;;;;;;;;;;;;;;;;6298196;28;19909;-80
2023/11/21 18:00:01;;;;;;;;;;;;;;;;;;6283814;28;20336;-80
2023/11/21 18:03:01;;;;;;;;;;;;;;;;;;6291803;28;20396;-80
2023/11/21 18:06:02;;;;;;;;;;;;;;;;;;6294057;28;19971;-80
2023/11/21 18:09:03;;;;;;;;;;;;;;;;;;6292061;28;19973;-80
2023/11/21 18:12:03;;;;;;;;;;;;;;;;;;5942578;28;10000522;-78
2023/11/21 18:15:03;;;;;;;;;;;;;;;;;;6280262;28;19927;-79
2023/11/21 18:18:03;;;;;;;;;;;;;;;;;;6293829;28;19912;-78
2023/11/21 18:21:03;;;;;;;;;;;;;;;;;;6290766;28;19924;-78
2023/11/21 18:24:03;;;;;;;;;;;;;;;;;;6274535;28;20055;-78
2023/11/21 18:27:04;;;;;;;;;;;;;;;;;;6272471;28;19924;-78
2023/11/21 18:30:05;;;;;;;;;;;;;;;;;;6294618;28;19965;-78
2023/11/21 18:33:05;;;;;;;;;;;;;;;;;;6275174;28;19916;-78
2023/11/21 18:36:05;;;;;;;;;;;;;;;;;;6285340;28;20488;-78
2023/11/21 18:39:08;;;;;;;;;;;;;;;;;;6283520;28;19916;-77
2023/11/21 18:42:08;;;;;;;;;;;;;;;;;;6282576;28;19920;-78
2023/11/21 18:45:08;;;;;;;;;;;;;;;;;;6277159;28;19983;-77
2023/11/21 18:48:10;;;;;;;;;;;;;;;;;;6276260;28;19913;-77
2023/11/21 18:51:11;;;;;;;;;;;;;;;;;;6268940;28;19920;-80
2023/11/21 18:54:11;;;;;;;;;;;;;;;;;;6307114;28;19923;-78
2023/11/21 18:57:11;;;;;;;;;;;;;;;;;;6284797;28;20369;-80
2023/11/21 19:00:12;;;;;;;;;;;;;;;;;;6269671;28;20387;-83
2023/11/21 19:03:12;;;;;;;;;;;;;;;;;;6285310;28;19999;-79
2023/11/21 19:06:12;;;;;;;;;;;;;;;;;;6291722;28;19916;-81
2023/11/21 19:09:12;;;;;;;;;;;;;;;;;;6288318;28;19921;-81
2023/11/21 19:12:14;;;;;;;;;;;;;;;;;;6291372;28;19920;-81
2023/11/21 19:15:16;;;;;;;;;;;;;;;;;;6292189;28;20366;-81
2023/11/21 19:18:16;;;;;;;;;;;;;;;;;;6278829;28;19916;-80
2023/11/21 19:21:16;;;;;;;;;;;;;;;;;;6276690;28;19917;-80
2023/11/21 19:24:18;;;;;;;;;;;;;;;;;;6285649;28;19927;-80
2023/11/21 19:27:19;;;;;;;;;;;;;;;;;;6282714;28;19954;-81
2023/11/21 19:30:20;;;;;;;;;;;;;;;;;;6284934;28;19913;-81
2023/11/21 19:33:20;;;;;;;;;;;;;;;;;;6268822;28;19949;-81
2023/11/21 19:36:20;;;;;;;;;;;;;;;;;;6267879;28;19919;-80
2023/11/21 19:39:20;;;;;;;;;;;;;;;;;;6278113;28;19958;-81
2023/11/21 19:42:20;;;;;;;;;;;;;;;;;;6284556;28;19909;-80
2023/11/21 19:45:20;;;;;;;;;;;;;;;;;;6275555;28;20337;-81
2023/11/21 19:48:23;;;;;;;;;;;;;;;;;;6282269;28;20472;-81
2023/11/21 19:51:23;;;;;;;;;;;;;;;;;;6271728;28;20324;-80
2023/11/21 19:54:23;;;;;;;;;;;;;;;;;;6287347;28;19916;-81
2023/11/21 19:57:23;;;;;;;;;;;;;;;;;;6298094;28;19919;-81
2023/11/21 20:00:25;;;;;;;;;;;;;;;;;;6280317;28;19924;-81
2023/11/21 20:03:27;;;;;;;;;;;;;;;;;;6287679;28;19917;-81
2023/11/21 20:06:27;;;;;;;;;;;;;;;;;;6278770;28;19927;-81
2023/11/21 20:09:27;;;;;;;;;;;;;;;;;;6280471;28;19920;-80
2023/11/21 20:12:29;;;;;;;;;;;;;;;;;;6297598;28;19912;-81
2023/11/21 20:15:29;;;;;;;;;;;;;;;;;;6296123;28;20352;-80
2023/11/21 20:18:30;;;;;;;;;;;;;;;;;;6276004;28;19921;-80
2023/11/21 20:21:31;;;;;;;;;;;;;;;;;;6281250;28;19970;-81
2023/11/21 20:24:34;;;;;;;;;;;;;;;;;;6290100;28;19966;-81
2023/11/21 20:27:34;;;;;;;;;;;;;;;;;;6291625;28;20276;-81
2023/11/21 20:30:34;;;;;;;;;;;;;;;;;;6281014;28;19927;-81
2023/11/21 20:33:34;;;;;;;;;;;;;;;;;;6291131;28;20358;-81